createdAt,value
2018-12-10T00:04:46.905Z,0.30
2018-12-10T00:09:43.449Z,0.30
2018-12-10T00:14:37.961Z,0.30
2018-12-10T00:19:32.461Z,0.20
2018-12-10T00:24:26.957Z,0.20
2018-12-10T00:29:21.455Z,0.20
2018-12-10T00:34:16.016Z,0.30
2018-12-10T00:39:10.557Z,0.20
2018-12-10T00:44:05.105Z,0.20
2018-12-10T00:48:59.588Z,0.10
2018-12-10T00:53:54.042Z,0.00
2018-12-10T00:58:48.524Z,0.00
2018-12-10T01:03:43.089Z,0.00
2018-12-10T01:08:37.572Z,0.10
2018-12-10T01:13:32.052Z,0.10
2018-12-10T01:18:26.540Z,0.10
2018-12-10T01:23:21.035Z,0.10
2018-12-10T01:28:15.493Z,0.00
2018-12-10T01:33:09.981Z,0.00
2018-12-10T01:38:04.960Z,0.00
2018-12-10T01:42:59.436Z,0.00
2018-12-10T01:47:53.978Z,-0.10
2018-12-10T01:52:48.462Z,-0.10
2018-12-10T01:57:42.961Z,-0.10
2018-12-10T02:02:37.459Z,-0.20
2018-12-10T02:07:31.965Z,-0.30
2018-12-10T02:12:26.477Z,-0.30
2018-12-10T02:17:22.125Z,-0.30
2018-12-10T02:22:16.626Z,-0.30
2018-12-10T02:27:11.175Z,-0.30
2018-12-10T02:32:05.685Z,-0.20
2018-12-10T02:37:00.165Z,-0.20
2018-12-10T02:41:54.652Z,-0.20
2018-12-10T02:46:49.153Z,-0.10
2018-12-10T02:51:43.611Z,-0.20
2018-12-10T02:56:38.122Z,-0.20
2018-12-10T03:01:32.630Z,-0.20
2018-12-10T03:06:27.133Z,-0.10
2018-12-10T03:11:21.646Z,-0.20
2018-12-10T03:16:16.195Z,-0.10
2018-12-10T03:21:10.745Z,-0.10
2018-12-10T03:26:05.266Z,-0.10
2018-12-10T03:30:59.827Z,0.00
2018-12-10T03:35:54.362Z,0.00
2018-12-10T03:40:48.856Z,0.00
2018-12-10T03:45:43.398Z,0.10
2018-12-10T03:50:37.929Z,0.10
2018-12-10T03:55:32.463Z,0.10
2018-12-10T04:00:27.002Z,0.10
2018-12-10T04:05:21.565Z,0.10
2018-12-10T04:10:16.070Z,0.10
2018-12-10T04:15:10.608Z,0.10
2018-12-10T04:20:05.326Z,0.10
2018-12-10T04:24:59.851Z,0.10
2018-12-10T04:29:54.418Z,0.00
2018-12-10T04:34:48.941Z,0.10
2018-12-10T04:39:43.465Z,0.10
2018-12-10T04:44:37.976Z,0.20
2018-12-10T04:49:32.495Z,0.20
2018-12-10T04:54:27.022Z,0.20
2018-12-10T04:59:22.777Z,0.20
2018-12-10T05:04:17.289Z,0.20
2018-12-10T05:09:11.866Z,0.30
2018-12-10T05:14:06.393Z,0.30
2018-12-10T05:19:00.898Z,0.40
2018-12-10T05:23:55.473Z,0.50
2018-12-10T05:28:49.994Z,0.40
2018-12-10T05:33:44.508Z,0.40
2018-12-10T05:38:39.013Z,0.40
2018-12-10T05:43:33.525Z,0.40
2018-12-10T05:48:28.025Z,0.30
2018-12-10T05:53:22.542Z,0.30
2018-12-10T05:58:17.784Z,0.30
2018-12-10T06:03:12.502Z,0.30
2018-12-10T06:08:07.001Z,0.40
2018-12-10T06:13:01.515Z,0.50
2018-12-10T06:17:56.175Z,0.60
2018-12-10T06:22:50.691Z,0.60
2018-12-10T06:27:45.349Z,0.70
2018-12-10T06:32:39.889Z,0.80
2018-12-10T06:37:37.649Z,0.80
2018-12-10T06:42:31.029Z,0.90
2018-12-10T06:47:25.574Z,0.90
2018-12-10T06:52:20.105Z,1.00
2018-12-10T06:57:14.655Z,1.00
2018-12-10T07:02:09.221Z,1.10
2018-12-10T07:07:04.305Z,1.20
2018-12-10T07:11:58.945Z,1.30
2018-12-10T07:16:54.513Z,1.40
2018-12-10T07:21:49.254Z,1.50
2018-12-10T07:26:43.774Z,1.50
2018-12-10T07:31:38.302Z,1.60
2018-12-10T07:36:32.844Z,1.70
2018-12-10T07:41:27.334Z,1.90
2018-12-10T07:46:21.925Z,2.00
2018-12-10T07:51:16.497Z,2.20
2018-12-10T07:56:11.109Z,2.30
2018-12-10T08:01:05.632Z,2.40
2018-12-10T08:06:00.244Z,2.60
2018-12-10T08:10:54.835Z,2.70
2018-12-10T08:15:49.441Z,2.90
2018-12-10T08:20:44.049Z,3.20
2018-12-10T08:25:38.627Z,3.50
2018-12-10T08:30:33.259Z,3.80
2018-12-10T08:35:27.919Z,4.00
2018-12-10T08:40:22.533Z,4.10
2018-12-10T08:45:18.782Z,4.20
2018-12-10T08:50:13.533Z,4.30
2018-12-10T08:55:08.152Z,4.30
2018-12-10T09:00:03.858Z,4.40
2018-12-10T09:04:59.654Z,4.40
2018-12-10T09:09:54.212Z,4.50
2018-12-10T09:14:48.798Z,4.60
2018-12-10T09:19:43.442Z,4.80
2018-12-10T09:24:38.103Z,5.30
2018-12-10T09:29:32.760Z,5.60
2018-12-10T09:34:27.417Z,5.80
2018-12-10T09:39:22.025Z,5.90
2018-12-10T09:44:16.569Z,6.00
2018-12-10T09:49:11.138Z,6.20
2018-12-10T09:54:05.653Z,6.40
2018-12-10T09:59:00.209Z,6.60
2018-12-10T10:03:54.709Z,6.80
2018-12-10T10:08:49.872Z,6.80
2018-12-10T10:13:44.687Z,6.90
2018-12-10T10:18:39.202Z,6.90
2018-12-10T10:23:34.628Z,7.10
2018-12-10T10:28:29.143Z,7.30
2018-12-10T10:33:32.047Z,7.50
2018-12-10T10:38:20.206Z,7.70
2018-12-10T10:43:14.720Z,8.00
2018-12-10T10:48:09.245Z,8.10
2018-12-10T10:53:03.771Z,8.00
2018-12-10T10:57:58.261Z,8.10
2018-12-10T11:02:53.556Z,8.20
2018-12-10T11:07:48.026Z,8.20
2018-12-10T11:12:42.529Z,8.20
2018-12-10T11:17:37.080Z,8.50
2018-12-10T11:22:31.540Z,8.50
2018-12-10T11:27:26.069Z,8.30
2018-12-10T11:32:20.555Z,8.10
2018-12-10T11:37:14.994Z,7.90
2018-12-10T11:42:09.432Z,8.10
2018-12-10T11:47:03.969Z,8.10
2018-12-10T11:51:58.406Z,8.20
2018-12-10T11:56:53.006Z,8.30
2018-12-10T12:01:47.541Z,8.40
2018-12-10T12:06:42.069Z,8.40
2018-12-10T12:11:36.565Z,8.40
2018-12-10T12:16:31.158Z,8.90
2018-12-10T12:21:25.699Z,8.90
2018-12-10T12:26:20.322Z,8.60
2018-12-10T12:31:14.906Z,8.60
2018-12-10T12:36:09.424Z,8.50
2018-12-10T12:41:03.953Z,8.30
2018-12-10T12:45:58.544Z,8.20
2018-12-10T12:50:53.079Z,8.20
2018-12-10T12:55:47.582Z,8.20
2018-12-10T13:00:42.287Z,8.10
2018-12-10T13:05:36.939Z,7.90
2018-12-10T13:10:31.518Z,7.90
2018-12-10T13:15:26.014Z,8.00
2018-12-10T13:20:20.493Z,7.90
2018-12-10T13:25:14.990Z,7.60
2018-12-10T13:30:09.658Z,7.60
2018-12-10T13:35:04.307Z,7.50
2018-12-10T13:39:58.789Z,7.40
2018-12-10T13:44:53.438Z,7.50
2018-12-10T13:49:48.042Z,7.60
2018-12-10T13:54:43.079Z,7.50
2018-12-10T13:59:37.658Z,7.40
2018-12-10T14:04:37.225Z,7.40
2018-12-10T14:09:31.789Z,7.20
2018-12-10T14:14:26.428Z,7.10
2018-12-10T14:19:21.149Z,7.00
2018-12-10T14:24:15.997Z,6.80
2018-12-10T14:29:10.560Z,6.70
2018-12-10T14:34:10.287Z,6.60
2018-12-10T14:39:08.901Z,6.50
2018-12-10T14:44:03.465Z,6.50
2018-12-10T14:48:58.560Z,6.40
2018-12-10T14:53:53.191Z,6.30
2018-12-10T14:58:47.698Z,6.20
2018-12-10T15:03:42.224Z,6.10
2018-12-10T15:08:36.779Z,6.00
2018-12-10T15:13:31.587Z,5.80
2018-12-10T15:18:26.234Z,5.60
2018-12-10T15:23:20.702Z,5.50
2018-12-10T15:28:15.276Z,5.40
2018-12-10T15:33:09.768Z,5.20
2018-12-10T15:38:04.342Z,5.10
2018-12-10T15:42:58.908Z,4.90
2018-12-10T15:47:53.397Z,4.90
2018-12-10T15:52:47.957Z,4.90
2018-12-10T15:57:43.583Z,4.80
2018-12-10T16:02:38.132Z,4.70
2018-12-10T16:07:32.681Z,4.50
2018-12-10T16:12:27.175Z,4.30
2018-12-10T16:17:21.681Z,4.00
2018-12-10T16:22:16.291Z,3.80
2018-12-10T16:27:11.128Z,3.70
2018-12-10T16:32:05.677Z,3.60
2018-12-10T16:37:00.225Z,3.40
2018-12-10T16:42:00.028Z,3.30
2018-12-10T16:47:00.821Z,3.10
2018-12-10T16:52:00.416Z,2.90
2018-12-10T16:56:59.831Z,2.70
2018-12-10T17:01:54.635Z,2.60
2018-12-10T17:06:49.322Z,2.40
2018-12-10T17:11:44.296Z,2.20
2018-12-10T17:16:39.218Z,2.00
2018-12-10T17:21:33.854Z,1.90
2018-12-10T17:26:28.582Z,2.00
2018-12-10T17:31:23.934Z,1.90
2018-12-10T17:36:18.681Z,1.80
2018-12-10T17:41:13.217Z,1.60
2018-12-10T17:46:07.732Z,1.60
2018-12-10T17:51:02.334Z,1.60
2018-12-10T17:55:57.009Z,1.50
2018-12-10T18:00:51.516Z,1.60
2018-12-10T18:05:46.066Z,1.50
2018-12-10T18:10:40.789Z,1.50
2018-12-10T18:15:35.338Z,1.40
2018-12-10T18:20:29.841Z,1.30
2018-12-10T18:25:24.366Z,1.30
2018-12-10T18:30:18.884Z,1.10
2018-12-10T18:35:13.815Z,1.20
2018-12-10T18:40:12.824Z,1.30
2018-12-10T18:45:10.751Z,1.30
2018-12-10T18:50:05.344Z,1.40
2018-12-10T18:54:59.983Z,1.40
2018-12-10T18:59:54.609Z,1.30
2018-12-10T19:04:49.137Z,1.10
2018-12-10T19:09:43.673Z,0.90
2018-12-10T19:14:38.170Z,0.80
2018-12-10T19:19:32.690Z,0.80
2018-12-10T19:24:27.349Z,0.70
2018-12-10T19:29:21.954Z,0.50
2018-12-10T19:34:16.447Z,0.50
2018-12-10T19:39:11.786Z,0.50
2018-12-10T19:44:09.478Z,0.50
2018-12-10T19:49:05.098Z,0.40
2018-12-10T19:54:00.760Z,0.30
2018-12-10T19:58:55.620Z,0.20
2018-12-10T20:03:50.192Z,0.20
2018-12-10T20:08:45.419Z,0.10
2018-12-10T20:13:40.001Z,0.00
2018-12-10T20:18:34.530Z,-0.10
2018-12-10T20:23:29.303Z,-0.10
2018-12-10T20:28:23.861Z,-0.10
2018-12-10T20:33:18.435Z,-0.10
2018-12-10T20:38:13.031Z,0.00
2018-12-10T20:43:07.629Z,0.00
2018-12-10T20:48:02.170Z,-0.10
2018-12-10T20:52:56.678Z,-0.20
2018-12-10T20:57:51.291Z,-0.20
2018-12-10T21:02:45.886Z,-0.30
2018-12-10T21:07:40.394Z,-0.30
2018-12-10T21:12:35.013Z,-0.40
2018-12-10T21:17:29.530Z,-0.40
2018-12-10T21:22:24.107Z,-0.40
2018-12-10T21:27:18.607Z,-0.40
2018-12-10T21:32:13.105Z,-0.40
2018-12-10T21:37:07.618Z,-0.40
2018-12-10T21:42:02.120Z,-0.50
2018-12-10T21:46:57.661Z,-0.50
2018-12-10T21:51:52.409Z,-0.60
2018-12-10T21:56:46.885Z,-0.60
2018-12-10T22:01:41.397Z,-0.60
2018-12-10T22:06:35.980Z,-0.70
2018-12-10T22:11:30.501Z,-0.70
2018-12-10T22:16:25.081Z,-0.80
2018-12-10T22:21:19.575Z,-0.80
2018-12-10T22:26:14.084Z,-0.90
2018-12-10T22:31:08.568Z,-0.90
2018-12-10T22:36:03.085Z,-0.90
2018-12-10T22:40:57.589Z,-0.80
2018-12-10T22:45:52.088Z,-0.80
2018-12-10T22:50:46.664Z,-0.80
2018-12-10T22:55:42.351Z,-0.80
2018-12-10T23:00:44.667Z,-0.80
2018-12-10T23:05:42.215Z,-0.80
2018-12-10T23:10:38.763Z,-0.70
2018-12-10T23:15:33.252Z,-0.60
2018-12-10T23:20:27.766Z,-0.60
2018-12-10T23:25:22.321Z,-0.50
2018-12-10T23:30:16.836Z,-0.50
2018-12-10T23:35:11.373Z,-0.40
2018-12-10T23:40:06.196Z,-0.40
2018-12-10T23:45:00.720Z,-0.30
2018-12-10T23:49:55.222Z,-0.30
2018-12-10T23:54:49.714Z,-0.20
2018-12-10T23:59:44.218Z,-0.20
